createdAt,value
2017-09-03T00:03:32.000Z,1011.875
2017-09-03T00:13:33.000Z,1011.686
2017-09-03T00:23:32.000Z,1011.728
2017-09-03T00:33:32.000Z,1011.643
2017-09-03T00:43:32.000Z,1011.63
2017-09-03T00:53:32.000Z,1011.696
2017-09-03T01:03:32.000Z,1011.673
2017-09-03T01:13:32.000Z,1011.638
2017-09-03T01:23:32.000Z,1011.523
2017-09-03T01:33:32.000Z,1011.473
2017-09-03T01:43:32.000Z,1011.402
2017-09-03T01:53:32.000Z,1011.275
2017-09-03T02:03:32.000Z,1011.314
2017-09-03T02:13:32.000Z,1011.326
2017-09-03T02:23:32.000Z,1011.285
2017-09-03T02:33:32.000Z,1011.137
2017-09-03T02:43:32.000Z,1011.199
2017-09-03T02:53:32.000Z,1011.23
2017-09-03T03:03:33.000Z,1011.219
2017-09-03T03:13:33.000Z,1011.176
2017-09-03T03:23:33.000Z,1011.192
2017-09-03T03:33:33.000Z,1011.148
2017-09-03T03:43:33.000Z,1011.116
2017-09-03T03:53:33.000Z,1011.053
2017-09-03T04:03:33.000Z,1010.985
2017-09-03T04:13:33.000Z,1010.951
2017-09-03T04:23:33.000Z,1010.947
2017-09-03T04:33:33.000Z,1010.797
2017-09-03T04:43:33.000Z,1010.704
2017-09-03T04:53:33.000Z,1010.68
2017-09-03T05:03:33.000Z,1010.679
2017-09-03T05:13:33.000Z,1010.647
2017-09-03T05:23:33.000Z,1010.685
2017-09-03T05:33:33.000Z,1010.631
2017-09-03T05:43:33.000Z,1010.687
2017-09-03T05:53:33.000Z,1010.674
2017-09-03T06:03:33.000Z,1010.67
2017-09-03T06:13:33.000Z,1010.674
2017-09-03T06:23:33.000Z,1010.687
2017-09-03T06:33:33.000Z,1010.705
2017-09-03T06:43:33.000Z,1010.735
2017-09-03T06:53:33.000Z,1010.704
2017-09-03T07:03:33.000Z,1010.78
2017-09-03T07:13:33.000Z,1010.709
2017-09-03T07:23:33.000Z,1010.797
2017-09-03T07:33:33.000Z,1010.807
2017-09-03T07:43:33.000Z,1010.814
2017-09-03T07:53:33.000Z,1010.738
2017-09-03T08:03:33.000Z,1010.664
2017-09-03T08:13:33.000Z,1010.617
2017-09-03T08:23:33.000Z,1010.547
2017-09-03T08:33:33.000Z,1010.593
2017-09-03T08:43:33.000Z,1010.512
2017-09-03T08:53:33.000Z,1010.427
2017-09-03T09:03:33.000Z,1010.255
2017-09-03T09:13:33.000Z,1010.196
2017-09-03T09:23:33.000Z,1010.138
2017-09-03T09:33:33.000Z,1010.118
2017-09-03T09:43:33.000Z,1010.149
2017-09-03T09:53:33.000Z,1010.061
2017-09-03T10:03:33.000Z,1010.045
2017-09-03T10:13:33.000Z,1009.956
2017-09-03T10:23:33.000Z,1009.865
2017-09-03T10:33:33.000Z,1009.768
2017-09-03T10:43:33.000Z,1009.788
2017-09-03T10:53:34.000Z,1009.64
2017-09-03T11:03:34.000Z,1009.601
2017-09-03T11:13:34.000Z,1009.578
2017-09-03T11:33:34.000Z,1009.323
2017-09-03T11:43:34.000Z,1009.306
2017-09-03T11:53:34.000Z,1009.222
2017-09-03T12:03:34.000Z,1009.163
2017-09-03T12:13:34.000Z,1008.977
2017-09-03T12:23:34.000Z,1008.988
2017-09-03T12:33:34.000Z,1008.901
2017-09-03T12:43:34.000Z,1008.82
2017-09-03T12:53:34.000Z,1008.593
2017-09-03T13:03:34.000Z,1008.504
2017-09-03T13:13:34.000Z,1008.394
2017-09-03T13:23:34.000Z,1008.25
2017-09-03T13:33:34.000Z,1008.188
2017-09-03T13:43:34.000Z,1008.125
2017-09-03T13:53:34.000Z,1008.05
2017-09-03T14:03:34.000Z,1008.016
2017-09-03T14:13:34.000Z,1007.951
2017-09-03T14:23:34.000Z,1007.857
2017-09-03T14:33:34.000Z,1007.826
2017-09-03T14:43:34.000Z,1007.77
2017-09-03T14:53:34.000Z,1007.705
2017-09-03T15:03:34.000Z,1007.687
2017-09-03T15:13:34.000Z,1007.637
2017-09-03T15:23:36.000Z,1007.6
2017-09-03T15:33:34.000Z,1007.5
2017-09-03T15:43:34.000Z,1007.462
2017-09-03T15:53:34.000Z,1007.381
2017-09-03T16:03:34.000Z,1007.393
2017-09-03T16:13:34.000Z,1007.367
2017-09-03T16:23:34.000Z,1007.306
2017-09-03T16:33:34.000Z,1007.341
2017-09-03T16:43:34.000Z,1007.285
2017-09-03T16:53:34.000Z,1007.25
2017-09-03T17:03:34.000Z,1007.286
2017-09-03T17:13:34.000Z,1007.323
2017-09-03T17:23:34.000Z,1007.408
2017-09-03T17:33:35.000Z,1007.371
2017-09-03T17:43:34.000Z,1007.406
2017-09-03T17:53:34.000Z,1007.423
2017-09-03T18:03:34.000Z,1007.446
2017-09-03T18:13:34.000Z,1007.451
2017-09-03T18:23:34.000Z,1007.473
2017-09-03T18:33:34.000Z,1007.463
2017-09-03T18:43:34.000Z,1007.501
2017-09-03T18:53:34.000Z,1007.631
2017-09-03T19:03:34.000Z,1007.724
2017-09-03T19:13:35.000Z,1007.804
2017-09-03T19:23:35.000Z,1007.795
2017-09-03T19:33:35.000Z,1007.815
2017-09-03T19:43:35.000Z,1007.849
2017-09-03T19:53:35.000Z,1007.85
2017-09-03T20:03:35.000Z,1007.949
2017-09-03T20:13:35.000Z,1007.963
2017-09-03T20:23:35.000Z,1008.019
2017-09-03T20:33:35.000Z,1007.986
2017-09-03T20:43:35.000Z,1007.969
2017-09-03T20:53:35.000Z,1008.021
2017-09-03T21:03:35.000Z,1008.028
2017-09-03T21:13:35.000Z,1008.036
2017-09-03T21:23:35.000Z,1007.975
2017-09-03T21:33:35.000Z,1007.93
2017-09-03T21:43:35.000Z,1007.979
2017-09-03T21:53:35.000Z,1007.963
2017-09-03T22:03:35.000Z,1007.936
2017-09-03T22:13:35.000Z,1007.948
2017-09-03T22:23:35.000Z,1007.942
2017-09-03T22:33:35.000Z,1007.903
2017-09-03T22:43:36.000Z,1008.033
2017-09-03T22:53:35.000Z,1007.912
2017-09-03T23:03:35.000Z,1007.884
2017-09-03T23:13:35.000Z,1007.833
2017-09-03T23:23:35.000Z,1007.83
2017-09-03T23:33:35.000Z,1007.825
2017-09-03T23:43:35.000Z,1007.746
2017-09-03T23:53:35.000Z,1007.734
